TFFF Airport Information

Runway Information
Runway 10 Length 10826 ft width 147 ft
Elevation 10 ft Threshold 0 ft Heading 80
Runway 28 Length 10826 ft Width 147 ft
Elevation 14 ft Threshold 984 ft Heading 260
Airport Frequencies
Type APP Name FORT DE FR Frequency 121 MHZ
Type ATIS Name ATIS Frequency 127.85 MHZ
Type GND Name GND Frequency 121.9 MHZ
Type TWR Name FORT DE FR Frequency 118.5 MHZ
Airport Navaids
Type VOR-DME Name Fort De France Frequency 113300 KHZ
Type NDB Name Fort De France Frequency 329 KHZ
Airport Weather Information & NOTAM
ADDS - METARS form results

(1032 UTC 21 May 2019)
Data provider http://aviationweather.gov/metar/data/
 
METAR text: TFFF 211030Z AUTO 11007KT 9999 FEW026 SCT043 26/22 Q1014
Conditions at: TFFF (LE LAMENTIN/MART, MQ) observed 1030 UTC 21 May 2019
Temperature: 26.0°C (79°F)
Dewpoint: 22.0°C (72°F) [RH = 79%]
Pressure (altimeter): 29.94 inches Hg (1014.0 mb)
Winds: from the ESE (110 degrees) at 8 MPH (7 knots; 3.6 m/s)
Visibility: 6 or more miles (10+ km)
Ceiling: at least 12,000 feet AGL
Clouds: few clouds at 2600 feet AGL
scattered clouds at 4300 feet AGL
Weather: no significant weather observed at this time

METAR text: TFFF 211000Z AUTO 11006KT 9999 FEW024 25/22 Q1013
Conditions at: TFFF (LE LAMENTIN/MART, MQ) observed 1000 UTC 21 May 2019
Temperature: 25.0°C (77°F)
Dewpoint: 22.0°C (72°F) [RH = 83%]
Pressure (altimeter): 29.91 inches Hg (1013.0 mb)
Winds: from the ESE (110 degrees) at 7 MPH (6 knots; 3.1 m/s)
Visibility: 6 or more miles (10+ km)
Ceiling: at least 12,000 feet AGL
Clouds: few clouds at 2400 feet AGL
Weather: no significant weather observed at this time